createdAt,value
2018-10-21T00:00:21.794Z,1015.30
2018-10-21T00:01:21.803Z,1015.28
2018-10-21T00:02:21.895Z,1015.33
2018-10-21T00:03:21.836Z,1015.37
2018-10-21T00:04:21.853Z,1015.34
2018-10-21T00:05:21.868Z,1015.32
2018-10-21T00:06:21.883Z,1015.34
2018-10-21T00:07:21.903Z,1015.36
2018-10-21T00:08:21.916Z,1015.33
2018-10-21T00:09:21.931Z,1015.36
2018-10-21T00:10:21.957Z,1015.34
2018-10-21T00:11:22.049Z,1015.33
2018-10-21T00:12:21.974Z,1015.31
2018-10-21T00:13:21.994Z,1015.31
2018-10-21T00:14:22.010Z,1015.29
2018-10-21T00:15:22.162Z,1015.33
2018-10-21T00:16:22.045Z,1015.30
2018-10-21T00:17:22.068Z,1015.30
2018-10-21T00:18:22.070Z,1015.33
2018-10-21T00:19:22.087Z,1015.30
2018-10-21T00:20:22.103Z,1015.27
2018-10-21T00:21:22.121Z,1015.30
2018-10-21T00:22:22.134Z,1015.30
2018-10-21T00:23:22.145Z,1015.31
2018-10-21T00:24:22.163Z,1015.32
2018-10-21T00:25:22.180Z,1015.32
2018-10-21T00:26:22.200Z,1015.33
2018-10-21T00:27:22.212Z,1015.36
2018-10-21T00:28:22.229Z,1015.33
2018-10-21T00:29:22.241Z,1015.35
2018-10-21T00:30:22.257Z,1015.34
2018-10-21T00:31:22.272Z,1015.34
2018-10-21T00:32:22.300Z,1015.33
2018-10-21T00:33:22.307Z,1015.35
2018-10-21T00:34:22.316Z,1015.35
2018-10-21T00:35:22.335Z,1015.37
2018-10-21T00:36:22.357Z,1015.41
2018-10-21T00:37:22.365Z,1015.44
2018-10-21T00:38:22.381Z,1015.46
2018-10-21T00:39:22.398Z,1015.47
2018-10-21T00:40:22.413Z,1015.47
2018-10-21T00:41:22.455Z,1015.48
2018-10-21T00:42:22.448Z,1015.47
2018-10-21T00:43:22.460Z,1015.50
2018-10-21T00:44:22.472Z,1015.48
2018-10-21T00:45:22.503Z,1015.46
2018-10-21T00:46:22.509Z,1015.48
2018-10-21T00:47:22.527Z,1015.49
2018-10-21T00:48:22.541Z,1015.48
2018-10-21T00:49:22.554Z,1015.50
2018-10-21T00:50:22.567Z,1015.53
2018-10-21T00:51:22.585Z,1015.51
2018-10-21T00:52:22.603Z,1015.47
2018-10-21T00:53:22.622Z,1015.43
2018-10-21T00:54:22.641Z,1015.41
2018-10-21T00:55:22.668Z,1015.40
2018-10-21T00:56:22.682Z,1015.33
2018-10-21T00:57:22.678Z,1015.35
2018-10-21T00:58:22.718Z,1015.38
2018-10-21T00:59:22.714Z,1015.37
2018-10-21T01:00:22.752Z,1015.27
2018-10-21T01:01:22.755Z,1015.27
2018-10-21T01:02:22.759Z,1015.23
2018-10-21T01:03:22.792Z,1015.26
2018-10-21T01:04:22.791Z,1015.24
2018-10-21T01:05:22.811Z,1015.27
2018-10-21T01:06:22.819Z,1015.22
2018-10-21T01:07:22.835Z,1015.18
2018-10-21T01:08:22.851Z,1015.22
2018-10-21T01:09:22.868Z,1015.25
2018-10-21T01:10:22.889Z,1015.26
2018-10-21T01:11:22.897Z,1015.24
2018-10-21T01:12:22.915Z,1015.24
2018-10-21T01:13:22.936Z,1015.23
2018-10-21T01:14:22.946Z,1015.23
2018-10-21T01:15:22.960Z,1015.28
2018-10-21T01:16:22.971Z,1015.29
2018-10-21T01:17:22.991Z,1015.29
2018-10-21T01:18:23.027Z,1015.34
2018-10-21T01:19:23.021Z,1015.31
2018-10-21T01:20:23.037Z,1015.33
2018-10-21T01:21:23.055Z,1015.30
2018-10-21T01:22:23.070Z,1015.29
2018-10-21T01:23:23.084Z,1015.29
2018-10-21T01:24:23.100Z,1015.29
2018-10-21T01:25:23.120Z,1015.27
2018-10-21T01:26:23.132Z,1015.31
2018-10-21T01:27:23.155Z,1015.27
2018-10-21T01:28:23.166Z,1015.26
2018-10-21T01:29:23.184Z,1015.29
2018-10-21T01:30:23.204Z,1015.25
2018-10-21T01:31:23.218Z,1015.29
2018-10-21T01:32:23.232Z,1015.35
2018-10-21T01:33:23.239Z,1015.35
2018-10-21T01:34:23.263Z,1015.34
2018-10-21T01:35:23.278Z,1015.35
2018-10-21T01:36:23.460Z,1015.35
2018-10-21T01:37:23.323Z,1015.37
2018-10-21T01:38:23.364Z,1015.36
2018-10-21T01:39:23.336Z,1015.37
2018-10-21T01:40:23.354Z,1015.37
2018-10-21T01:41:23.369Z,1015.40
2018-10-21T01:42:23.380Z,1015.40
2018-10-21T01:43:23.398Z,1015.38
2018-10-21T01:44:23.410Z,1015.39
2018-10-21T01:45:23.427Z,1015.35
2018-10-21T01:46:23.447Z,1015.36
2018-10-21T01:47:23.460Z,1015.35
2018-10-21T01:48:23.483Z,1015.38
2018-10-21T01:49:23.499Z,1015.35
2018-10-21T01:50:23.505Z,1015.36
2018-10-21T01:51:23.520Z,1015.38
2018-10-21T01:52:23.567Z,1015.42
2018-10-21T01:53:23.552Z,1015.42
2018-10-21T01:54:23.568Z,1015.40
2018-10-21T01:55:23.583Z,1015.41
2018-10-21T01:56:23.594Z,1015.37
2018-10-21T01:57:23.612Z,1015.41
2018-10-21T01:58:23.631Z,1015.42
2018-10-21T01:59:23.647Z,1015.42
2018-10-21T02:00:23.664Z,1015.41
2018-10-21T02:01:23.674Z,1015.38
2018-10-21T02:02:23.687Z,1015.37
2018-10-21T02:03:23.706Z,1015.36
2018-10-21T02:04:23.724Z,1015.36
2018-10-21T02:05:23.734Z,1015.37
2018-10-21T02:06:23.756Z,1015.35
2018-10-21T02:07:23.771Z,1015.30
2018-10-21T02:08:23.785Z,1015.27
2018-10-21T02:09:23.796Z,1015.28
2018-10-21T02:10:23.812Z,1015.27
2018-10-21T02:11:23.838Z,1015.30
2018-10-21T02:12:23.844Z,1015.31
2018-10-21T02:13:23.861Z,1015.29
2018-10-21T02:14:23.879Z,1015.30
2018-10-21T02:15:23.890Z,1015.28
2018-10-21T02:16:23.916Z,1015.29
2018-10-21T02:17:23.928Z,1015.26
2018-10-21T02:18:23.937Z,1015.27
2018-10-21T02:19:23.952Z,1015.28
2018-10-21T02:20:23.968Z,1015.28
2018-10-21T02:21:23.986Z,1015.26
2018-10-21T02:22:23.997Z,1015.30
2018-10-21T02:23:24.020Z,1015.28
2018-10-21T02:24:24.038Z,1015.35
2018-10-21T02:25:24.055Z,1015.29
2018-10-21T02:26:24.130Z,1015.33
2018-10-21T02:27:24.117Z,1015.35
2018-10-21T02:28:24.104Z,1015.34
2018-10-21T02:29:24.116Z,1015.31
2018-10-21T02:30:24.136Z,1015.29
2018-10-21T02:31:24.151Z,1015.29
2018-10-21T02:32:24.157Z,1015.31
2018-10-21T02:33:24.323Z,1015.31
2018-10-21T02:34:24.192Z,1015.30
2018-10-21T02:35:24.255Z,1015.31
2018-10-21T02:36:24.220Z,1015.30
2018-10-21T02:37:24.233Z,1015.26
2018-10-21T02:38:24.264Z,1015.28
2018-10-21T02:39:24.301Z,1015.25
2018-10-21T02:40:24.281Z,1015.28
2018-10-21T02:41:24.292Z,1015.26
2018-10-21T02:42:24.317Z,1015.21
2018-10-21T02:43:24.326Z,1015.23
2018-10-21T02:44:24.346Z,1015.20
2018-10-21T02:45:24.360Z,1015.20
2018-10-21T02:46:24.372Z,1015.12
2018-10-21T02:47:24.388Z,1015.19
2018-10-21T02:48:24.402Z,1015.14
2018-10-21T02:49:24.419Z,1015.10
2018-10-21T02:50:24.443Z,1015.12
2018-10-21T02:51:24.456Z,1015.13
2018-10-21T02:52:24.467Z,1015.11
2018-10-21T02:53:24.516Z,1015.11
2018-10-21T02:54:24.500Z,1015.11
2018-10-21T02:55:24.508Z,1015.14
2018-10-21T02:56:24.540Z,1015.12
2018-10-21T02:57:24.543Z,1015.11
2018-10-21T02:58:24.562Z,1015.05
2018-10-21T02:59:24.569Z,1014.99
2018-10-21T03:00:24.593Z,1014.99
2018-10-21T03:01:24.603Z,1014.99
2018-10-21T03:02:24.617Z,1014.98
2018-10-21T03:03:24.639Z,1014.91
2018-10-21T03:04:24.652Z,1014.91
2018-10-21T03:05:24.666Z,1014.92
2018-10-21T03:06:24.680Z,1014.91
2018-10-21T03:07:24.698Z,1014.87
2018-10-21T03:08:24.712Z,1014.88
2018-10-21T03:09:24.731Z,1014.82
2018-10-21T03:10:24.743Z,1014.87
2018-10-21T03:11:24.768Z,1014.86
2018-10-21T03:12:24.781Z,1014.89
2018-10-21T03:13:24.793Z,1014.91
2018-10-21T03:14:24.805Z,1014.91
2018-10-21T03:15:24.817Z,1014.94
2018-10-21T03:16:24.852Z,1014.91
2018-10-21T03:17:24.852Z,1014.92
2018-10-21T03:18:24.915Z,1014.88
2018-10-21T03:19:24.888Z,1014.85
2018-10-21T03:20:24.904Z,1014.83
2018-10-21T03:21:24.914Z,1014.89
2018-10-21T03:22:24.931Z,1014.84
2018-10-21T03:23:24.946Z,1014.86
2018-10-21T03:24:24.957Z,1014.86
2018-10-21T03:25:24.975Z,1014.82
2018-10-21T03:26:24.994Z,1014.80
2018-10-21T03:27:25.005Z,1014.77
2018-10-21T03:28:25.018Z,1014.72
2018-10-21T03:29:25.038Z,1014.74
2018-10-21T03:30:25.059Z,1014.72
2018-10-21T03:31:25.079Z,1014.73
2018-10-21T03:32:25.081Z,1014.74
2018-10-21T03:33:25.302Z,1014.73
2018-10-21T03:34:25.115Z,1014.68
2018-10-21T03:35:25.124Z,1014.64
2018-10-21T03:36:25.161Z,1014.62
2018-10-21T03:37:25.165Z,1014.62
2018-10-21T03:38:25.172Z,1014.62
2018-10-21T03:39:25.193Z,1014.64
2018-10-21T03:40:25.207Z,1014.63
2018-10-21T03:41:25.229Z,1014.67
2018-10-21T03:42:25.239Z,1014.65
2018-10-21T03:43:25.253Z,1014.62
2018-10-21T03:44:25.268Z,1014.64
2018-10-21T03:45:25.278Z,1014.63
2018-10-21T03:46:25.296Z,1014.68
2018-10-21T03:47:25.311Z,1014.68
2018-10-21T03:48:25.327Z,1014.68
2018-10-21T03:49:25.349Z,1014.67
2018-10-21T03:50:25.358Z,1014.64
2018-10-21T03:51:25.373Z,1014.63
2018-10-21T03:52:25.405Z,1014.61
2018-10-21T03:53:25.405Z,1014.63
2018-10-21T03:54:25.424Z,1014.61
2018-10-21T03:55:25.434Z,1014.62
2018-10-21T03:56:25.444Z,1014.60
2018-10-21T03:57:25.466Z,1014.57
2018-10-21T03:58:25.480Z,1014.57
2018-10-21T03:59:25.493Z,1014.52
2018-10-21T04:00:25.524Z,1014.52
2018-10-21T04:01:25.521Z,1014.51
2018-10-21T04:02:25.544Z,1014.50
2018-10-21T04:03:25.551Z,1014.51
2018-10-21T04:04:25.567Z,1014.52
2018-10-21T04:05:25.587Z,1014.56
2018-10-21T04:06:25.602Z,1014.56
2018-10-21T04:07:25.611Z,1014.55
2018-10-21T04:08:25.630Z,1014.56
2018-10-21T04:09:25.644Z,1014.55
2018-10-21T04:10:25.667Z,1014.54
2018-10-21T04:11:25.676Z,1014.53
2018-10-21T04:12:25.691Z,1014.50
2018-10-21T04:13:25.704Z,1014.56
2018-10-21T04:14:25.719Z,1014.56
2018-10-21T04:15:25.731Z,1014.56
2018-10-21T04:16:25.747Z,1014.61
2018-10-21T04:17:25.771Z,1014.65
2018-10-21T04:18:25.779Z,1014.71
2018-10-21T04:19:25.792Z,1014.75
2018-10-21T04:20:25.815Z,1014.73
2018-10-21T04:21:25.847Z,1014.72
2018-10-21T04:22:25.848Z,1014.69
2018-10-21T04:23:25.855Z,1014.69
2018-10-21T04:24:25.869Z,1014.70
2018-10-21T04:25:25.896Z,1014.69
2018-10-21T04:26:25.902Z,1014.74
2018-10-21T04:27:25.919Z,1014.74
2018-10-21T04:28:25.931Z,1014.74
2018-10-21T04:29:25.946Z,1014.74
2018-10-21T04:30:25.960Z,1014.72
2018-10-21T04:31:25.981Z,1014.75
2018-10-21T04:32:25.995Z,1014.68
2018-10-21T04:33:26.007Z,1014.66
2018-10-21T04:34:26.033Z,1014.66
2018-10-21T04:35:26.095Z,1014.73
2018-10-21T04:36:26.053Z,1014.72
2018-10-21T04:37:26.072Z,1014.74
2018-10-21T04:38:26.089Z,1014.76
2018-10-21T04:39:26.100Z,1014.76
2018-10-21T04:40:26.115Z,1014.82
2018-10-21T04:41:26.131Z,1014.82
2018-10-21T04:42:26.154Z,1014.84
2018-10-21T04:43:26.161Z,1014.84
2018-10-21T04:44:26.177Z,1014.85
2018-10-21T04:45:26.189Z,1014.84
2018-10-21T04:46:26.215Z,1014.87
2018-10-21T04:47:26.220Z,1014.86
2018-10-21T04:48:26.233Z,1014.84
2018-10-21T04:49:26.244Z,1014.82
2018-10-21T04:50:26.262Z,1014.77
2018-10-21T04:51:26.274Z,1014.82
2018-10-21T04:52:26.289Z,1014.81
2018-10-21T04:53:26.304Z,1014.84
2018-10-21T04:54:26.320Z,1014.83
2018-10-21T04:55:26.349Z,1014.85
2018-10-21T04:56:26.353Z,1014.82
2018-10-21T04:57:26.371Z,1014.87
2018-10-21T04:58:26.382Z,1014.84
2018-10-21T04:59:26.394Z,1014.85
2018-10-21T05:00:26.415Z,1014.84
2018-10-21T05:01:26.420Z,1014.90
2018-10-21T05:02:26.448Z,1014.88
2018-10-21T05:03:26.450Z,1014.88
2018-10-21T05:04:26.468Z,1014.85
2018-10-21T05:05:26.485Z,1014.88
2018-10-21T05:06:26.500Z,1014.87
2018-10-21T05:07:26.569Z,1014.88
2018-10-21T05:08:26.535Z,1014.85
2018-10-21T05:09:26.540Z,1014.86
2018-10-21T05:10:26.560Z,1014.88
2018-10-21T05:11:26.596Z,1014.86
2018-10-21T05:12:26.586Z,1014.85
2018-10-21T05:13:26.615Z,1014.85
2018-10-21T05:14:26.616Z,1014.85
2018-10-21T05:15:26.631Z,1014.87
2018-10-21T05:16:26.740Z,1014.87
2018-10-21T05:17:26.659Z,1014.82
2018-10-21T05:18:26.676Z,1014.88
2018-10-21T05:19:26.691Z,1014.84
2018-10-21T05:20:26.701Z,1014.90
2018-10-21T05:21:26.721Z,1014.86
2018-10-21T05:22:26.738Z,1014.86
2018-10-21T05:23:26.745Z,1014.88
2018-10-21T05:24:26.762Z,1014.87
2018-10-21T05:25:26.780Z,1014.89
2018-10-21T05:26:26.802Z,1014.89
2018-10-21T05:27:26.804Z,1014.88
2018-10-21T05:28:26.826Z,1014.85
2018-10-21T05:29:26.855Z,1014.88
2018-10-21T05:30:26.848Z,1014.92
2018-10-21T05:31:26.865Z,1014.91
2018-10-21T05:32:26.880Z,1014.90
2018-10-21T05:33:26.898Z,1014.89
2018-10-21T05:34:26.945Z,1014.89
2018-10-21T05:35:26.932Z,1014.91
2018-10-21T05:36:26.938Z,1014.90
2018-10-21T05:37:26.954Z,1014.94
2018-10-21T05:38:26.986Z,1014.96
2018-10-21T05:39:26.982Z,1014.98
2018-10-21T05:40:27.035Z,1014.99
2018-10-21T05:41:27.017Z,1014.97
2018-10-21T05:42:27.045Z,1015.00
2018-10-21T05:43:27.049Z,1015.00
2018-10-21T05:44:27.061Z,1015.02
2018-10-21T05:45:27.077Z,1014.99
2018-10-21T05:46:27.091Z,1014.99
2018-10-21T05:47:27.103Z,1015.00
2018-10-21T05:48:27.116Z,1014.98
2018-10-21T05:49:27.132Z,1014.97
2018-10-21T05:50:27.152Z,1015.05
2018-10-21T05:51:27.163Z,1015.03
2018-10-21T05:52:27.177Z,1015.05
2018-10-21T05:53:27.198Z,1015.08
2018-10-21T05:54:27.212Z,1015.10
2018-10-21T05:55:27.221Z,1015.05
2018-10-21T05:56:27.252Z,1015.07
2018-10-21T05:57:27.251Z,1015.10
2018-10-21T05:58:27.271Z,1015.07
2018-10-21T05:59:27.274Z,1015.09
2018-10-21T06:00:27.289Z,1015.09
2018-10-21T06:01:27.322Z,1015.10
2018-10-21T06:02:27.327Z,1015.16
2018-10-21T06:03:27.338Z,1015.12
2018-10-21T06:04:27.374Z,1015.15
2018-10-21T06:05:27.374Z,1015.13
2018-10-21T06:06:27.380Z,1015.12
2018-10-21T06:07:27.392Z,1015.11
2018-10-21T06:08:27.420Z,1015.12
2018-10-21T06:09:27.432Z,1015.10
2018-10-21T06:10:27.443Z,1015.07
2018-10-21T06:11:27.459Z,1015.09
2018-10-21T06:12:27.475Z,1015.05
2018-10-21T06:13:27.481Z,1015.11
2018-10-21T06:14:27.496Z,1015.09
2018-10-21T06:15:27.511Z,1015.06
2018-10-21T06:16:27.527Z,1015.07
2018-10-21T06:17:27.546Z,1015.08
2018-10-21T06:18:27.556Z,1015.05
2018-10-21T06:19:27.569Z,1015.06
2018-10-21T06:20:27.597Z,1015.07
2018-10-21T06:21:27.598Z,1015.09
2018-10-21T06:22:27.610Z,1015.07
2018-10-21T06:23:27.627Z,1015.03
2018-10-21T06:24:27.641Z,1015.06
2018-10-21T06:25:27.659Z,1015.08
2018-10-21T06:26:27.673Z,1015.12
2018-10-21T06:27:27.738Z,1015.15
2018-10-21T06:28:27.697Z,1015.19
2018-10-21T06:29:27.718Z,1015.18
2018-10-21T06:30:27.733Z,1015.17
2018-10-21T06:31:27.745Z,1015.17
2018-10-21T06:32:27.757Z,1015.20
2018-10-21T06:33:27.824Z,1015.24
2018-10-21T06:34:27.786Z,1015.22
2018-10-21T06:35:27.801Z,1015.25
2018-10-21T06:36:27.818Z,1015.32
2018-10-21T06:37:27.924Z,1015.36
2018-10-21T06:38:27.847Z,1015.35
2018-10-21T06:39:27.886Z,1015.39
2018-10-21T06:40:27.890Z,1015.38
2018-10-21T06:41:27.893Z,1015.42
2018-10-21T06:42:27.920Z,1015.38
2018-10-21T06:43:27.923Z,1015.34
2018-10-21T06:44:27.936Z,1015.33
2018-10-21T06:45:28.081Z,1015.31
2018-10-21T06:46:27.976Z,1015.34
2018-10-21T06:47:27.992Z,1015.34
2018-10-21T06:48:28.026Z,1015.40
2018-10-21T06:49:28.009Z,1015.43
2018-10-21T06:50:28.026Z,1015.45
2018-10-21T06:51:28.050Z,1015.48
2018-10-21T06:52:28.065Z,1015.43
2018-10-21T06:53:28.073Z,1015.47
2018-10-21T06:54:28.094Z,1015.51
2018-10-21T06:55:28.104Z,1015.48
2018-10-21T06:56:28.235Z,1015.52
2018-10-21T06:57:28.202Z,1015.54
2018-10-21T06:58:28.147Z,1015.55
2018-10-21T06:59:28.160Z,1015.52
2018-10-21T07:00:28.174Z,1015.55
2018-10-21T07:01:28.186Z,1015.55
2018-10-21T07:02:28.203Z,1015.55
2018-10-21T07:03:28.220Z,1015.54
2018-10-21T07:04:28.266Z,1015.54
2018-10-21T07:05:28.258Z,1015.53
2018-10-21T07:06:28.269Z,1015.56
2018-10-21T07:07:28.280Z,1015.57
2018-10-21T07:08:28.292Z,1015.58
2018-10-21T07:09:28.315Z,1015.56
2018-10-21T07:10:28.324Z,1015.60
2018-10-21T07:11:28.341Z,1015.59
2018-10-21T07:12:28.355Z,1015.57
2018-10-21T07:13:28.371Z,1015.60
2018-10-21T07:14:28.397Z,1015.59
2018-10-21T07:15:28.436Z,1015.58
2018-10-21T07:16:28.497Z,1015.59
2018-10-21T07:17:28.436Z,1015.62
2018-10-21T07:18:28.444Z,1015.66
2018-10-21T07:19:28.460Z,1015.69
2018-10-21T07:20:28.477Z,1015.65
2018-10-21T07:21:28.487Z,1015.69
2018-10-21T07:22:28.517Z,1015.67
2018-10-21T07:23:28.524Z,1015.62
2018-10-21T07:24:28.540Z,1015.65
2018-10-21T07:25:28.556Z,1015.63
2018-10-21T07:26:28.578Z,1015.62
2018-10-21T07:27:28.592Z,1015.63
2018-10-21T07:28:28.608Z,1015.67
2018-10-21T07:29:28.628Z,1015.67
2018-10-21T07:30:28.631Z,1015.65
2018-10-21T07:31:28.655Z,1015.65
2018-10-21T07:32:28.656Z,1015.65
2018-10-21T07:33:28.678Z,1015.63
2018-10-21T07:34:28.693Z,1015.68
2018-10-21T07:35:28.709Z,1015.73
2018-10-21T07:36:28.830Z,1015.74
2018-10-21T07:37:28.732Z,1015.70
2018-10-21T07:38:28.758Z,1015.71
2018-10-21T07:39:28.766Z,1015.72
2018-10-21T07:40:28.794Z,1015.75
2018-10-21T07:41:28.810Z,1015.76
2018-10-21T07:42:28.818Z,1015.76
2018-10-21T07:43:28.833Z,1015.78
2018-10-21T07:44:28.843Z,1015.79
2018-10-21T07:45:28.860Z,1015.81
2018-10-21T07:46:28.876Z,1015.81
2018-10-21T07:47:28.892Z,1015.81
2018-10-21T07:48:28.903Z,1015.87
2018-10-21T07:49:28.919Z,1015.89
2018-10-21T07:50:29.688Z,1015.92
2018-10-21T07:51:29.072Z,1015.88
2018-10-21T07:52:28.971Z,1015.92
2018-10-21T07:53:28.984Z,1015.93
2018-10-21T07:54:28.998Z,1015.96
2018-10-21T07:55:29.017Z,1015.96
2018-10-21T07:56:29.030Z,1015.96
2018-10-21T07:57:29.045Z,1015.99
2018-10-21T07:58:29.060Z,1015.97
2018-10-21T07:59:29.078Z,1015.99
2018-10-21T08:00:29.107Z,1016.00
2018-10-21T08:01:29.181Z,1016.03
2018-10-21T08:02:29.142Z,1016.06
2018-10-21T08:03:29.140Z,1016.11
2018-10-21T08:04:29.156Z,1016.07
2018-10-21T08:05:29.172Z,1016.06
2018-10-21T08:06:29.220Z,1016.09
2018-10-21T08:07:29.204Z,1016.08
2018-10-21T08:08:29.225Z,1016.09
2018-10-21T08:09:29.242Z,1016.09
2018-10-21T08:10:29.249Z,1016.06
2018-10-21T08:11:29.264Z,1016.05
2018-10-21T08:12:29.282Z,1016.01
2018-10-21T08:13:29.308Z,1016.01
2018-10-21T08:14:29.350Z,1016.00
2018-10-21T08:15:29.339Z,1016.02
2018-10-21T08:16:29.351Z,1016.07
2018-10-21T08:17:29.391Z,1016.07
2018-10-21T08:18:29.381Z,1016.09
2018-10-21T08:19:29.398Z,1016.09
2018-10-21T08:20:29.418Z,1016.07
2018-10-21T08:21:29.426Z,1016.02
2018-10-21T08:22:29.445Z,1016.00
2018-10-21T08:23:29.459Z,1015.97
2018-10-21T08:24:29.478Z,1015.99
2018-10-21T08:25:29.496Z,1016.00
2018-10-21T08:26:29.522Z,1015.99
2018-10-21T08:27:29.545Z,1015.98
2018-10-21T08:28:29.545Z,1015.99
2018-10-21T08:29:29.560Z,1016.00
2018-10-21T08:30:29.576Z,1016.02
2018-10-21T08:31:29.596Z,1016.05
2018-10-21T08:32:29.621Z,1016.04
2018-10-21T08:33:29.628Z,1016.05
2018-10-21T08:34:29.644Z,1016.03
2018-10-21T08:35:29.658Z,1016.08
2018-10-21T08:36:29.684Z,1016.07
2018-10-21T08:37:29.699Z,1016.09
2018-10-21T08:38:29.718Z,1016.09
2018-10-21T08:39:29.725Z,1016.07
2018-10-21T08:40:29.742Z,1016.05
2018-10-21T08:41:29.765Z,1016.05
2018-10-21T08:42:29.782Z,1016.08
2018-10-21T08:43:29.798Z,1016.08
2018-10-21T08:44:29.809Z,1016.13
2018-10-21T08:45:29.839Z,1016.10
2018-10-21T08:46:29.902Z,1016.12
2018-10-21T08:47:29.861Z,1016.15
2018-10-21T08:48:29.877Z,1016.11
2018-10-21T08:49:29.946Z,1016.08
2018-10-21T08:50:29.918Z,1016.10
2018-10-21T08:51:29.943Z,1016.13
2018-10-21T08:52:29.945Z,1016.09
2018-10-21T08:53:29.971Z,1016.09
2018-10-21T08:54:29.997Z,1016.06
2018-10-21T08:55:30.003Z,1016.09
2018-10-21T08:56:30.018Z,1016.08
2018-10-21T08:57:30.032Z,1016.08
2018-10-21T08:58:30.065Z,1016.09
2018-10-21T08:59:30.067Z,1016.09
2018-10-21T09:00:30.086Z,1016.12
2018-10-21T09:01:30.108Z,1016.11
2018-10-21T09:02:30.120Z,1016.13
2018-10-21T09:03:30.135Z,1016.10
2018-10-21T09:04:30.205Z,1016.12
2018-10-21T09:05:30.171Z,1016.13
2018-10-21T09:06:30.187Z,1016.16
2018-10-21T09:07:30.214Z,1016.13
2018-10-21T09:08:30.220Z,1016.19
2018-10-21T09:09:30.243Z,1016.20
2018-10-21T09:10:30.362Z,1016.20
2018-10-21T09:11:30.276Z,1016.25
2018-10-21T09:12:30.294Z,1016.21
2018-10-21T09:13:30.315Z,1016.25
2018-10-21T09:14:30.327Z,1016.26
2018-10-21T09:15:30.432Z,1016.25
2018-10-21T09:16:30.401Z,1016.27
2018-10-21T09:17:30.379Z,1016.27
2018-10-21T09:18:30.399Z,1016.29
2018-10-21T09:19:30.410Z,1016.27
2018-10-21T09:20:30.431Z,1016.22
2018-10-21T09:21:30.448Z,1016.20
2018-10-21T09:22:30.484Z,1016.20
2018-10-21T09:23:30.502Z,1016.23
2018-10-21T09:24:30.508Z,1016.22
2018-10-21T09:25:30.516Z,1016.18
2018-10-21T09:26:30.537Z,1016.20
2018-10-21T09:27:30.557Z,1016.15
2018-10-21T09:28:30.571Z,1016.13
2018-10-21T09:29:30.590Z,1016.17
2018-10-21T09:30:30.607Z,1016.16
2018-10-21T09:31:30.628Z,1016.17
2018-10-21T09:32:30.642Z,1016.15
2018-10-21T09:33:30.803Z,1016.15
2018-10-21T09:34:30.677Z,1016.18
2018-10-21T09:35:30.709Z,1016.16
2018-10-21T09:36:30.739Z,1016.20
2018-10-21T09:37:30.731Z,1016.20
2018-10-21T09:38:30.747Z,1016.23
2018-10-21T09:39:30.767Z,1016.15
2018-10-21T09:40:30.801Z,1016.17
2018-10-21T09:41:30.814Z,1016.17
2018-10-21T09:42:30.821Z,1016.17
2018-10-21T09:43:30.839Z,1016.18
2018-10-21T09:44:30.853Z,1016.16
2018-10-21T09:45:30.900Z,1016.17
2018-10-21T09:46:30.890Z,1016.15
2018-10-21T09:47:30.911Z,1016.13
2018-10-21T09:48:30.927Z,1016.14
2018-10-21T09:49:30.949Z,1016.16
2018-10-21T09:50:30.967Z,1016.15
2018-10-21T09:51:30.977Z,1016.15
2018-10-21T09:52:30.998Z,1016.15
2018-10-21T09:53:31.031Z,1016.15
2018-10-21T09:54:31.034Z,1016.14
2018-10-21T09:55:31.050Z,1016.16
2018-10-21T09:56:31.069Z,1016.14
2018-10-21T09:57:31.095Z,1016.16
2018-10-21T09:58:31.139Z,1016.15
2018-10-21T09:59:31.119Z,1016.09
2018-10-21T10:00:31.143Z,1016.05
2018-10-21T10:01:31.157Z,1016.09
2018-10-21T10:02:31.177Z,1016.05
2018-10-21T10:03:31.192Z,1016.07
2018-10-21T10:04:31.214Z,1016.06
2018-10-21T10:05:31.232Z,1016.06
2018-10-21T10:06:31.246Z,1016.07
2018-10-21T10:07:31.277Z,1016.05
2018-10-21T10:08:31.289Z,1016.03
2018-10-21T10:09:31.308Z,1016.00
2018-10-21T10:10:31.319Z,1015.94
2018-10-21T10:11:31.339Z,1015.86
2018-10-21T10:12:31.364Z,1015.78
2018-10-21T10:13:31.379Z,1015.80
2018-10-21T10:14:31.399Z,1015.77
2018-10-21T10:15:31.411Z,1015.80
2018-10-21T10:16:31.429Z,1015.76
2018-10-21T10:17:31.486Z,1015.76
2018-10-21T10:18:31.468Z,1015.68
2018-10-21T10:19:31.482Z,1015.69
2018-10-21T10:20:31.509Z,1015.72
2018-10-21T10:21:31.516Z,1015.67
2018-10-21T10:22:31.544Z,1015.70
2018-10-21T10:23:31.616Z,1015.76
2018-10-21T10:24:31.572Z,1015.80
2018-10-21T10:25:31.595Z,1015.89
2018-10-21T10:26:31.617Z,1015.81
2018-10-21T10:27:31.641Z,1015.83
2018-10-21T10:28:31.655Z,1015.83
2018-10-21T10:29:31.666Z,1015.86
2018-10-21T10:30:31.739Z,1015.84
2018-10-21T10:31:31.695Z,1015.78
2018-10-21T10:32:31.717Z,1015.75
2018-10-21T10:33:31.738Z,1015.67
2018-10-21T10:34:31.757Z,1015.63
2018-10-21T10:35:31.785Z,1015.58
2018-10-21T10:36:31.791Z,1015.57
2018-10-21T10:37:31.815Z,1015.55
2018-10-21T10:38:31.833Z,1015.52
2018-10-21T10:39:31.843Z,1015.48
2018-10-21T10:40:31.877Z,1015.47
2018-10-21T10:41:31.898Z,1015.37
2018-10-21T10:42:31.900Z,1015.36
2018-10-21T10:43:31.918Z,1015.34
2018-10-21T10:44:31.940Z,1015.36
2018-10-21T10:45:31.957Z,1015.35
2018-10-21T10:46:31.982Z,1015.35
2018-10-21T10:47:31.991Z,1015.36
2018-10-21T10:48:32.014Z,1015.35
2018-10-21T10:49:32.026Z,1015.34
2018-10-21T10:50:32.047Z,1015.35
2018-10-21T10:51:32.067Z,1015.34
2018-10-21T10:52:32.082Z,1015.31
2018-10-21T10:53:32.100Z,1015.26
2018-10-21T10:54:32.119Z,1015.27
2018-10-21T10:55:32.137Z,1015.26
2018-10-21T10:56:32.154Z,1015.24
2018-10-21T10:57:32.172Z,1015.22
2018-10-21T10:58:32.194Z,1015.25
2018-10-21T10:59:32.229Z,1015.16
2018-10-21T11:00:32.235Z,1015.16
2018-10-21T11:01:32.245Z,1015.13
2018-10-21T11:02:32.275Z,1015.10
2018-10-21T11:03:32.286Z,1015.10
2018-10-21T11:04:32.299Z,1015.06
2018-10-21T11:05:32.319Z,1015.05
2018-10-21T11:06:32.339Z,1015.03
2018-10-21T11:07:32.359Z,1015.05
2018-10-21T11:08:32.376Z,1015.00
2018-10-21T11:09:32.395Z,1015.01
2018-10-21T11:10:32.416Z,1014.97
2018-10-21T11:11:32.428Z,1014.98
2018-10-21T11:12:32.453Z,1014.98
2018-10-21T11:13:32.474Z,1014.97
2018-10-21T11:14:32.514Z,1014.95
2018-10-21T11:15:32.512Z,1014.90
2018-10-21T11:16:32.524Z,1014.93
2018-10-21T11:17:32.542Z,1014.91
2018-10-21T11:18:32.555Z,1014.89
2018-10-21T11:19:32.576Z,1014.83
2018-10-21T11:20:32.597Z,1014.86
2018-10-21T11:21:32.608Z,1014.85
2018-10-21T11:22:32.641Z,1014.79
2018-10-21T11:23:32.655Z,1014.80
2018-10-21T11:24:32.671Z,1014.75
2018-10-21T11:25:32.688Z,1014.75
2018-10-21T11:26:32.713Z,1014.75
2018-10-21T11:27:32.724Z,1014.72
2018-10-21T11:28:32.735Z,1014.74
2018-10-21T11:29:32.757Z,1014.75
2018-10-21T11:30:32.777Z,1014.72
2018-10-21T11:31:32.789Z,1014.70
2018-10-21T11:32:32.809Z,1014.67
2018-10-21T11:33:32.828Z,1014.66
2018-10-21T11:34:32.851Z,1014.64
2018-10-21T11:35:32.864Z,1014.65
2018-10-21T11:36:32.905Z,1014.64
2018-10-21T11:37:33.118Z,1014.59
2018-10-21T11:38:32.919Z,1014.55
2018-10-21T11:39:32.937Z,1014.57
2018-10-21T11:40:32.955Z,1014.51
2018-10-21T11:41:32.974Z,1014.49
2018-10-21T11:42:32.992Z,1014.48
2018-10-21T11:43:33.013Z,1014.46
2018-10-21T11:44:33.029Z,1014.44
2018-10-21T11:45:33.051Z,1014.39
2018-10-21T11:46:33.166Z,1014.40
2018-10-21T11:47:33.083Z,1014.38
2018-10-21T11:48:33.103Z,1014.35
2018-10-21T11:49:33.115Z,1014.33
2018-10-21T11:50:33.136Z,1014.30
2018-10-21T11:51:33.152Z,1014.30
2018-10-21T11:52:33.207Z,1014.28
2018-10-21T11:53:33.186Z,1014.26
2018-10-21T11:54:33.204Z,1014.26
2018-10-21T11:55:33.227Z,1014.22
2018-10-21T11:56:33.244Z,1014.22
2018-10-21T11:57:33.272Z,1014.18
2018-10-21T11:58:33.277Z,1014.22
2018-10-21T11:59:33.300Z,1014.20
2018-10-21T12:00:33.324Z,1014.19
2018-10-21T12:01:33.334Z,1014.20
2018-10-21T12:02:33.350Z,1014.14
2018-10-21T12:03:33.366Z,1014.16
2018-10-21T12:04:33.384Z,1014.10
2018-10-21T12:05:33.404Z,1014.13